Terminal Aerodrome Forecast
Issued by NWS Sioux Falls, SD

Home | Current Version | Previous Version | Graphics & Text | Print | Product List | Glossary On
Versions: 1 2 3 4 5 6 7 8 9 10 11 12 13 14 15 16 17 18 19 20
000
FTUS43 KFSD 282332
TAFFSD
TAF
KFSD 282332Z 2900/2924 33009KT P6SM SCT012 BKN250
     FM290200 34013G22KT P6SM SCT012 BKN150
     FM290400 33023G33KT P6SM BKN015
     FM290800 33023G33KT P6SM BKN020
     FM291500 33019G30KT P6SM BKN020
     FM291900 33016G24KT P6SM SCT025=

USA.gov is the U.S. government's official web portal to all federal, state and local government web resources and services.